In Rescue
 
Open Full Screen Window  High Contrast Mode
Wind Gusting 23 knots
17
March 29, 2020 9:09 PM EDT
Weather Information
Wind Direction
  270 °
Wind Speed
  17 kt (20 mph)
Wind Gust
  23 kt (26 mph)
Altimeter
29.92 in
Visibility
10 SM
Temperature
14° C
57° F
Dewpoint
05° C
41° F
Humidity
55%
1hr Rain Fall
00.00 in.
24hr Rain Fall
00.43 in.
Sky Condition
Scattered @ 6,500 ft
VFR

METAR KMRT 300109Z AUTO 27017G23KT 10SM SCT065 14/05 A2992 RMK AO2 T01370045

FAA Disclaimer: The data displayed is for advisory purposes only and is not to be used for flight planning or operations.